Time;durP1;ratioP1;P1;durP2;ratioP2;P2;SDS_P1;SDS_P2;PMS_P1;PMS_P2;Temp;Humidity;BMP_temperature;BMP_pressure;BME280_temperature;BME280_humidity;BME280_pressure;Samples;Min_cycle;Max_cycle;Signal;HPM_P1;HPM_P2
2021/09/01 00:00:13;;;;;;;16.33;4.80;;;;;;;16.47;72.00;102722.19;5032703;28;20500;-58
2021/09/01 00:02:41;;;;;;;12.88;4.88;;;;;;;16.49;71.98;102720.00;5031720;28;20045;-57
2021/09/01 00:05:10;;;;;;;17.52;5.25;;;;;;;16.50;72.06;102716.19;5032059;28;20057;-57
2021/09/01 00:07:38;;;;;;;15.77;5.32;;;;;;;16.51;71.95;102723.34;5030966;28;20082;-58
2021/09/01 00:10:10;;;;;;;15.02;4.47;;;;;;;16.52;72.25;102719.47;5031434;28;20096;-57
2021/09/01 00:12:43;;;;;;;19.02;5.18;;;;;;;16.53;72.29;102715.66;5031176;28;20803;-58
2021/09/01 00:15:12;;;;;;;16.58;5.25;;;;;;;16.56;72.32;102726.13;5032818;28;20156;-53
2021/09/01 00:17:39;;;;;;;15.55;5.05;;;;;;;16.59;71.70;102716.53;5032686;28;20046;-51
2021/09/01 00:20:09;;;;;;;18.60;4.65;;;;;;;16.57;71.67;102711.28;5031930;28;20048;-52
2021/09/01 00:22:37;;;;;;;12.95;4.30;;;;;;;16.57;71.84;102724.19;5032218;28;20045;-54
2021/09/01 00:25:06;;;;;;;14.27;4.53;;;;;;;16.56;71.94;102717.06;5032394;28;20046;-55
2021/09/01 00:27:34;;;;;;;16.50;5.47;;;;;;;16.55;72.28;102723.66;5032449;28;20048;-55
2021/09/01 00:30:03;;;;;;;14.07;4.60;;;;;;;16.56;72.54;102723.38;5032224;28;20054;-57
2021/09/01 00:32:31;;;;;;;17.80;4.95;;;;;;;16.57;72.31;102711.28;5032604;28;20404;-57
2021/09/01 00:34:58;;;;;;;16.27;5.00;;;;;;;16.57;72.19;102715.94;5031680;28;20415;-57
2021/09/01 00:37:26;;;;;;;16.60;4.82;;;;;;;16.50;72.34;102716.19;5032368;28;20046;-57
2021/09/01 00:39:54;;;;;;;12.85;4.28;;;;;;;16.50;72.72;102718.94;5031050;28;20112;-58
2021/09/01 00:42:22;;;;;;;15.25;5.10;;;;;;;16.52;72.63;102716.72;5032230;28;20132;-57
2021/09/01 00:44:49;;;;;;;10.80;4.30;;;;;;;16.54;72.58;102717.31;5032408;28;20044;-58
2021/09/01 00:47:23;;;;;;;15.45;4.65;;;;;;;16.50;72.38;102724.44;5030868;28;20049;-58
2021/09/01 00:49:54;;;;;;;16.75;5.38;;;;;;;16.46;72.31;102720.53;5030201;28;20060;-58
2021/09/01 00:52:23;;;;;;;15.75;5.18;;;;;;;16.40;72.81;102716.06;5030711;28;20072;-58
2021/09/01 00:54:53;;;;;;;15.20;4.97;;;;;;;16.32;73.20;102724.81;5030660;28;20041;-57
2021/09/01 00:57:23;;;;;;;16.55;4.90;;;;;;;16.29;73.46;102719.84;5016642;28;20527;-58
2021/09/01 00:59:53;;;;;;;15.85;4.47;;;;;;;16.28;73.04;102718.97;5019055;28;20073;-56
2021/09/01 01:02:24;;;;;;;18.58;5.05;;;;;;;16.34;73.19;102711.63;5018514;28;20381;-58
2021/09/01 01:05:13;;;;;;;16.02;5.07;;;;;;;16.37;72.78;102711.09;5036080;28;20081;-56
2021/09/01 01:08:01;;;;;;;18.00;5.28;;;;;;;16.38;72.22;102708.09;5035669;28;20495;-57
2021/09/01 01:10:48;;;;;;;13.80;4.82;;;;;;;16.37;72.19;102711.91;5035867;28;20049;-58
2021/09/01 01:13:36;;;;;;;13.13;4.72;;;;;;;16.38;72.37;102712.78;5036043;28;20049;-58
2021/09/01 01:16:25;;;;;;;14.73;4.70;;;;;;;16.37;72.17;102709.19;5035343;28;20053;-57
2021/09/01 01:19:13;;;;;;;15.77;5.45;;;;;;;16.31;72.13;102706.66;5034982;28;20458;-58
2021/09/01 01:22:00;;;;;;;16.38;4.80;;;;;;;16.16;72.80;102712.81;5032569;28;20061;-56
2021/09/01 01:24:53;;;;;;;14.70;4.70;;;;;;;16.14;73.47;102712.28;5035442;28;20140;-58
2021/09/01 01:27:25;;;;;;;16.58;5.32;;;;;;;16.21;73.63;102717.53;5035592;28;20037;-58
2021/09/01 01:29:54;;;;;;;18.92;5.05;;;;;;;16.27;73.52;102722.00;5035547;28;20502;-57
2021/09/01 01:32:22;;;;;;;18.98;4.95;;;;;;;16.31;73.05;102723.16;5035339;28;20145;-54
2021/09/01 01:34:49;;;;;;;20.23;4.90;;;;;;;16.34;72.81;102719.88;5035376;28;20045;-56
2021/09/01 01:37:17;;;;;;;16.98;5.05;;;;;;;16.33;73.22;102721.81;5035520;28;20117;-58
2021/09/01 01:39:45;;;;;;;17.73;4.60;;;;;;;16.37;73.03;102719.34;5035384;28;20041;-58
2021/09/01 01:42:12;;;;;;;13.93;4.20;;;;;;;16.40;72.97;102718.81;5035379;28;20069;-54
2021/09/01 01:44:40;;;;;;;14.73;5.15;;;;;;;16.42;72.72;102721.31;5035523;28;20041;-56
2021/09/01 01:47:07;;;;;;;15.82;5.07;;;;;;;16.42;72.60;102716.66;5035118;28;20037;-57
2021/09/01 01:49:35;;;;;;;15.77;4.95;;;;;;;16.43;72.64;102711.97;5035004;28;20058;-56
2021/09/01 01:52:03;;;;;;;14.32;4.05;;;;;;;16.40;72.70;102713.31;5035125;28;20041;-56
2021/09/01 01:54:31;;;;;;;19.25;4.70;;;;;;;16.39;72.86;102714.44;5035211;28;20041;-57
2021/09/01 01:57:00;;;;;;;15.60;4.57;;;;;;;16.37;72.80;102722.09;5034882;28;20034;-57
2021/09/01 01:59:28;;;;;;;15.80;5.60;;;;;;;16.34;73.07;102722.63;5035328;28;20045;-56
2021/09/01 02:01:56;;;;;;;14.20;5.00;;;;;;;16.30;73.03;102718.72;5034741;28;20407;-57
2021/09/01 02:04:25;;;;;;;16.45;5.07;;;;;;;16.29;72.85;102726.16;5033730;28;20045;-57
2021/09/01 02:06:53;;;;;;;20.05;6.32;;;;;;;16.30;73.38;102721.47;5033809;28;20048;-57
2021/09/01 02:09:22;;;;;;;15.07;4.80;;;;;;;16.33;72.82;102726.47;5032205;28;20063;-57
2021/09/01 02:11:54;;;;;;;17.98;4.85;;;;;;;16.36;72.92;102726.78;5033492;28;20061;-56
2021/09/01 02:14:24;;;;;;;14.32;4.40;;;;;;;16.41;72.71;102726.00;5033387;28;20088;-56
2021/09/01 02:16:53;;;;;;;15.27;4.50;;;;;;;16.43;72.97;102732.09;5033333;28;20064;-58
2021/09/01 02:19:24;;;;;;;14.90;5.43;;;;;;;16.45;72.46;102729.91;5033734;28;20490;-58
2021/09/01 02:21:52;;;;;;;14.30;4.68;;;;;;;16.46;72.64;102728.81;5033629;28;20064;-56
2021/09/01 02:24:20;;;;;;;16.50;5.07;;;;;;;16.46;72.17;102725.22;5034681;28;20053;-57
2021/09/01 02:26:47;;;;;;;13.73;4.70;;;;;;;16.43;72.55;102726.56;5034579;28;20038;-58
2021/09/01 02:29:15;;;;;;;16.05;4.85;;;;;;;16.43;72.79;102723.81;5034488;28;20045;-58
2021/09/01 02:31:43;;;;;;;15.73;4.90;;;;;;;16.43;72.20;102726.56;5034349;28;20045;-58
2021/09/01 02:34:11;;;;;;;16.30;4.75;;;;;;;16.43;72.38;102721.06;5034502;28;20046;-58
2021/09/01 02:36:39;;;;;;;18.00;5.30;;;;;;;16.38;72.85;102716.34;5034349;28;20373;-58
2021/09/01 02:39:06;;;;;;;13.68;4.68;;;;;;;16.37;72.37;102717.44;5034635;28;20038;-57
2021/09/01 02:41:34;;;;;;;13.48;4.43;;;;;;;16.37;72.79;102720.19;5034343;28;20092;-57
2021/09/01 02:44:02;;;;;;;19.42;4.68;;;;;;;16.37;72.63;102719.34;5034060;28;20037;-57
2021/09/01 02:46:29;;;;;;;12.88;4.60;;;;;;;16.37;72.70;102717.44;5034132;28;20069;-57
2021/09/01 02:48:57;;;;;;;17.60;4.70;;;;;;;16.38;72.78;102718.28;5034004;28;20370;-57
2021/09/01 02:51:25;;;;;;;15.38;4.50;;;;;;;16.37;72.67;102711.91;5034348;28;20048;-57
2021/09/01 02:53:52;;;;;;;15.45;4.55;;;;;;;16.38;72.57;102718.28;5034068;28;20075;-53
2021/09/01 02:56:20;;;;;;;12.38;4.45;;;;;;;16.31;71.96;102715.72;5034091;28;20045;-57
2021/09/01 02:58:48;;;;;;;17.52;5.13;;;;;;;16.23;72.42;102713.44;5033739;28;20041;-57
2021/09/01 03:01:16;;;;;;;17.20;5.28;;;;;;;16.22;72.88;102710.97;5033606;28;20451;-57
2021/09/01 03:03:44;;;;;;;18.10;5.13;;;;;;;16.23;72.69;102715.38;5033984;28;20042;-57
2021/09/01 03:06:18;;;;;;;15.30;5.15;;;;;;;16.23;72.57;102715.38;5032447;28;20049;-57
2021/09/01 03:08:46;;;;;;;16.25;5.07;;;;;;;16.24;73.04;102717.88;5032912;28;20072;-56
2021/09/01 03:11:14;;;;;;;14.45;5.05;;;;;;;16.19;72.92;102715.88;5032365;28;20080;-55
2021/09/01 03:13:43;;;;;;;21.05;4.88;;;;;;;16.22;73.10;102724.72;5032204;28;20046;-56
2021/09/01 03:16:16;;;;;;;15.38;4.80;;;;;;;16.21;72.78;102718.41;5031949;28;20417;-57
2021/09/01 03:18:44;;;;;;;14.45;4.70;;;;;;;16.21;72.89;102725.78;5032205;28;20683;-54
2021/09/01 03:21:13;;;;;;;11.68;4.40;;;;;;;16.22;72.81;102724.72;5031813;28;20050;-55
2021/09/01 03:23:41;;;;;;;14.65;5.00;;;;;;;16.23;72.97;102721.69;5033871;28;20053;-57
2021/09/01 03:26:08;;;;;;;13.45;4.82;;;;;;;16.23;72.36;102715.38;5033472;28;20061;-56
2021/09/01 03:28:36;;;;;;;16.50;5.82;;;;;;;16.21;72.66;102715.63;5033051;28;20041;-56
2021/09/01 03:31:04;;;;;;;16.35;5.00;;;;;;;16.24;72.26;102714.28;5033368;28;20083;-56
2021/09/01 03:33:32;;;;;;;15.65;4.57;;;;;;;16.29;72.01;102714.34;5033271;28;20025;-57
2021/09/01 03:35:59;;;;;;;14.48;4.95;;;;;;;16.33;71.60;102718.19;5033245;28;20046;-55
2021/09/01 03:38:27;;;;;;;13.90;5.30;;;;;;;16.35;71.71;102724.28;5033319;28;20060;-57
2021/09/01 03:40:54;;;;;;;15.68;4.80;;;;;;;16.32;71.59;102724.81;5033400;28;20377;-56
2021/09/01 03:43:22;;;;;;;13.23;4.60;;;;;;;16.31;71.16;102721.22;5033020;28;20049;-56
2021/09/01 03:45:54;;;;;;;14.93;5.00;;;;;;;16.30;71.39;102732.50;5032974;28;20108;-56
2021/09/01 03:48:22;;;;;;;16.10;4.60;;;;;;;16.30;71.53;102725.06;5033226;28;20077;-57
2021/09/01 03:50:50;;;;;;;14.52;4.20;;;;;;;16.31;71.46;102734.16;5033238;28;20042;-57
2021/09/01 03:53:19;;;;;;;14.85;5.28;;;;;;;16.34;71.58;102722.63;5032971;28;20053;-56
2021/09/01 03:55:47;;;;;;;14.05;4.82;;;;;;;16.35;71.46;102719.59;5032728;28;20064;-56
2021/09/01 03:58:15;;;;;;;14.57;5.00;;;;;;;16.37;71.55;102727.59;5032639;28;20050;-57
2021/09/01 04:00:43;;;;;;;15.35;4.50;;;;;;;16.37;71.36;102724.84;5031453;28;20049;-55
2021/09/01 04:03:12;;;;;;;17.23;4.88;;;;;;;16.37;71.65;102727.59;5033100;28;20532;-57
2021/09/01 04:05:40;;;;;;;17.95;5.22;;;;;;;16.37;71.31;102727.59;5032625;28;20080;-56
2021/09/01 04:08:14;;;;;;;13.57;4.30;;;;;;;16.37;71.11;102733.09;5031491;28;20049;-56
2021/09/01 04:10:42;;;;;;;18.05;5.03;;;;;;;16.35;71.23;102727.03;5032502;28;20079;-56
2021/09/01 04:13:30;;;;;;;13.05;5.10;;;;;;;16.35;71.19;102729.78;5031945;28;20045;-56
2021/09/01 04:16:17;;;;;;;14.30;4.82;;;;;;;16.33;71.02;102729.22;5031624;28;20045;-57
2021/09/01 04:19:06;;;;;;;16.13;4.65;;;;;;;16.31;71.04;102723.97;5032366;28;20045;-57
2021/09/01 04:21:53;;;;;;;15.57;5.03;;;;;;;16.30;70.66;102719.56;5031874;28;20050;-55
2021/09/01 04:24:41;;;;;;;16.70;5.85;;;;;;;16.27;70.74;102722.00;5031727;28;20053;-55
2021/09/01 04:27:29;;;;;;;18.08;5.55;;;;;;;16.25;70.91;102725.00;5031538;28;20046;-56
2021/09/01 04:30:16;;;;;;;17.25;4.88;;;;;;;16.26;70.98;102734.09;5028919;28;20060;-56
2021/09/01 04:32:53;;;;;;;19.30;5.60;;;;;;;16.28;71.19;102729.16;5030219;28;20053;-57
2021/09/01 04:35:40;;;;;;;15.82;5.03;;;;;;;16.30;70.70;102732.50;5031922;28;20051;-55
2021/09/01 04:38:28;;;;;;;14.93;4.60;;;;;;;16.32;71.16;102727.56;5031903;28;20407;-56
2021/09/01 04:41:15;;;;;;;19.02;5.25;;;;;;;16.33;71.01;102729.22;5031583;28;20045;-56
2021/09/01 04:44:03;;;;;;;13.75;4.82;;;;;;;16.32;71.16;102730.31;5031989;28;20038;-57
2021/09/01 04:46:51;;;;;;;15.20;5.25;;;;;;;16.32;71.48;102735.81;5031769;28;20045;-56
2021/09/01 04:49:38;;;;;;;13.05;4.70;;;;;;;16.32;72.06;102735.81;5031577;28;20492;-56
2021/09/01 04:52:26;;;;;;;15.07;4.97;;;;;;;16.30;72.04;102726.97;5031824;28;20480;-58
2021/09/01 04:55:15;;;;;;;13.30;4.32;;;;;;;16.29;72.40;102736.34;5031619;28;20396;-57
2021/09/01 04:58:03;;;;;;;14.75;4.63;;;;;;;16.27;72.53;102735.75;5031637;28;20058;-57
2021/09/01 05:00:51;;;;;;;17.25;5.00;;;;;;;16.27;72.47;102730.25;5030778;28;20095;-57
2021/09/01 05:03:39;;;;;;;13.13;5.15;;;;;;;16.29;72.29;102733.59;5031293;28;20459;-56
2021/09/01 05:06:27;;;;;;;15.30;4.93;;;;;;;16.29;72.17;102736.34;5032074;28;20407;-57
2021/09/01 05:09:16;;;;;;;12.98;4.47;;;;;;;16.29;72.12;102737.16;5031823;28;20046;-57
2021/09/01 05:11:43;;;;;;;15.18;5.35;;;;;;;16.31;72.06;102732.25;5031507;28;20057;-57
2021/09/01 05:14:11;;;;;;;18.67;5.32;;;;;;;16.34;71.95;102744.66;5031696;28;20049;-61
2021/09/01 05:16:38;;;;;;;15.60;4.97;;;;;;;16.33;72.59;102740.22;5031557;28;20068;-58
2021/09/01 05:19:07;;;;;;;14.80;5.30;;;;;;;16.30;72.53;102732.50;5030553;28;20420;-59
2021/09/01 05:21:35;;;;;;;14.57;5.30;;;;;;;16.29;72.61;102741.84;5032490;28;20034;-59
2021/09/01 05:24:03;;;;;;;16.15;5.40;;;;;;;16.28;72.76;102738.25;5032009;28;20503;-59
2021/09/01 05:26:33;;;;;;;14.80;5.22;;;;;;;16.28;72.83;102740.16;5030951;28;20060;-59
2021/09/01 05:29:03;;;;;;;16.13;5.47;;;;;;;16.28;72.72;102743.75;5031449;28;20037;-59
2021/09/01 05:31:32;;;;;;;14.65;5.18;;;;;;;16.26;72.96;102748.69;5026830;28;20076;-59
2021/09/01 05:34:02;;;;;;;17.02;5.70;;;;;;;16.24;72.46;102759.13;5029642;28;20049;-58
2021/09/01 05:36:31;;;;;;;12.85;5.03;;;;;;;16.24;72.87;102763.81;5030250;28;20080;-57
2021/09/01 05:39:00;;;;;;;14.30;4.75;;;;;;;16.25;73.15;102760.78;5030814;28;20041;-59
2021/09/01 05:41:29;;;;;;;20.00;5.47;;;;;;;16.25;72.48;102759.94;5029594;28;20081;-60
2021/09/01 05:43:59;;;;;;;16.42;5.25;;;;;;;16.23;72.62;102754.69;5033858;28;20037;-59
2021/09/01 05:46:28;;;;;;;17.88;4.97;;;;;;;16.25;71.85;102752.53;5033882;28;20508;-54
2021/09/01 05:48:57;;;;;;;14.63;4.70;;;;;;;16.23;71.11;102749.19;5033400;28;20492;-58
2021/09/01 05:51:25;;;;;;;17.52;5.53;;;;;;;16.23;70.60;102749.19;5033784;28;20052;-59
2021/09/01 05:54:03;;;;;;;15.40;5.65;;;;;;;16.23;70.64;102748.38;5017726;28;20427;-59
2021/09/01 05:56:49;;;;;;;17.33;7.03;;;;;;;16.23;70.94;102745.63;5049105;28;20072;-57
2021/09/01 05:59:24;;;;;;;15.02;5.82;;;;;;;16.24;70.78;102750.88;5015565;28;20055;-59
2021/09/01 06:02:03;;;;;;;17.25;6.75;;;;;;;16.22;70.66;102752.22;5025009;28;20038;-59
2021/09/01 06:04:38;;;;;;;18.20;7.05;;;;;;;16.18;71.12;102758.22;5008398;28;20083;-60
2021/09/01 06:07:16;;;;;;;17.75;6.18;;;;;;;16.16;70.68;102759.56;5039401;28;20406;-58
2021/09/01 06:09:59;;;;;;;15.23;5.57;;;;;;;16.16;70.92;102754.91;5045671;28;20041;-57
2021/09/01 06:12:30;;;;;;;16.13;6.13;;;;;;;16.19;70.61;102759.91;5052213;28;20043;-59
2021/09/01 06:14:58;;;;;;;14.90;4.90;;;;;;;16.19;70.31;102751.66;5056591;28;20041;-59
2021/09/01 06:17:26;;;;;;;16.60;6.90;;;;;;;16.15;70.11;102755.16;5074563;28;20045;-58
2021/09/01 06:19:53;;;;;;;16.00;4.57;;;;;;;16.13;69.75;102758.16;5074173;28;20047;-59
2021/09/01 06:22:21;;;;;;;16.90;5.22;;;;;;;16.11;69.91;102763.09;5073894;28;20132;-59
2021/09/01 06:24:49;;;;;;;16.92;5.55;;;;;;;16.13;70.76;102755.41;5056422;28;20060;-59
2021/09/01 06:27:16;;;;;;;17.58;6.47;;;;;;;16.17;69.63;102766.75;5075232;28;20040;-59
2021/09/01 06:29:44;;;;;;;14.25;5.30;;;;;;;16.23;69.88;102767.63;5074077;28;20051;-58
2021/09/01 06:32:11;;;;;;;20.23;5.75;;;;;;;16.24;69.99;102764.63;5074566;28;20411;-59
2021/09/01 06:34:40;;;;;;;12.05;4.80;;;;;;;16.28;69.84;102770.44;5056417;28;20057;-59
2021/09/01 06:37:08;;;;;;;16.15;5.57;;;;;;;16.25;68.81;102765.44;5073941;28;20041;-60
2021/09/01 06:39:36;;;;;;;17.50;5.10;;;;;;;16.24;69.03;102752.78;5073823;28;20033;-58
2021/09/01 06:42:04;;;;;;;13.10;5.57;;;;;;;16.26;69.32;102758.84;5055982;28;20102;-59
2021/09/01 06:44:31;;;;;;;14.55;5.15;;;;;;;16.28;69.46;102767.69;5056129;28;20494;-59
2021/09/01 06:46:59;;;;;;;16.75;5.32;;;;;;;16.30;68.91;102766.31;5073919;28;20102;-55
2021/09/01 06:49:27;;;;;;;17.42;5.10;;;;;;;16.29;68.73;102764.69;5073991;28;20040;-58
2021/09/01 06:51:55;;;;;;;16.42;5.22;;;;;;;16.26;68.76;102770.69;5073678;28;20041;-60
2021/09/01 06:54:23;;;;;;;15.05;4.85;;;;;;;16.26;68.78;102769.84;5055288;28;20461;-53
2021/09/01 06:56:55;;;;;;;16.77;4.65;;;;;;;16.26;68.72;102770.69;5055697;28;20048;-56
2021/09/01 06:59:28;;;;;;;12.75;4.50;;;;;;;16.25;68.60;102779.19;5055805;28;20048;-56
2021/09/01 07:02:01;;;;;;;16.30;5.53;;;;;;;16.24;68.78;102778.38;5055636;28;20044;-55
2021/09/01 07:04:33;;;;;;;17.10;5.38;;;;;;;16.24;69.10;102774.81;5055740;28;20249;-55
2021/09/01 07:07:05;;;;;;;12.27;4.50;;;;;;;16.24;68.87;102766.56;5055176;28;20083;-55
2021/09/01 07:09:37;;;;;;;14.65;4.82;;;;;;;16.26;68.25;102778.09;5055450;28;20131;-52
2021/09/01 07:12:05;;;;;;;14.13;4.63;;;;;;;16.25;68.79;102781.94;5048381;28;20047;-57
2021/09/01 07:14:53;;;;;;;12.02;4.85;;;;;;;16.21;68.98;102780.78;5058068;28;20041;-54
2021/09/01 07:17:21;;;;;;;13.65;5.90;;;;;;;16.21;69.14;102789.91;5073715;28;20037;-57
2021/09/01 07:19:48;;;;;;;14.15;5.10;;;;;;;16.23;68.53;102781.38;5069761;28;20057;-52
2021/09/01 07:22:16;;;;;;;14.27;5.38;;;;;;;16.25;68.79;102784.69;5060156;28;20052;-55
2021/09/01 07:24:43;;;;;;;14.50;5.30;;;;;;;16.27;68.93;102782.53;5068290;28;20063;-56
2021/09/01 07:27:11;;;;;;;16.30;5.53;;;;;;;16.30;68.58;102787.50;5038275;28;20041;-54
2021/09/01 07:29:39;;;;;;;14.65;5.53;;;;;;;16.33;68.68;102790.59;5065995;28;20498;-55
2021/09/01 07:32:06;;;;;;;12.90;4.78;;;;;;;16.33;68.60;102797.97;5066153;28;20480;-54
2021/09/01 07:34:34;;;;;;;15.45;5.57;;;;;;;16.34;68.24;102789.47;5069555;28;20048;-53
2021/09/01 07:37:02;;;;;;;13.63;4.80;;;;;;;16.33;68.57;102792.47;5065814;28;20094;-52
2021/09/01 07:39:29;;;;;;;12.95;5.28;;;;;;;16.34;68.67;102794.16;5069808;28;20037;-55
2021/09/01 07:41:57;;;;;;;14.07;5.03;;;;;;;16.35;69.00;102806.81;5066614;28;20060;-54
2021/09/01 07:44:25;;;;;;;13.55;5.35;;;;;;;16.36;68.75;102803.00;5061689;28;20488;-53
2021/09/01 07:46:53;;;;;;;11.57;4.93;;;;;;;16.36;68.31;102805.75;5067779;28;20043;-55
2021/09/01 07:49:21;;;;;;;16.40;5.13;;;;;;;16.38;68.38;102806.31;5014617;28;20095;-57
2021/09/01 07:51:49;;;;;;;15.05;5.35;;;;;;;16.40;68.19;102809.63;5060297;28;20045;-55
2021/09/01 07:54:17;;;;;;;16.17;5.43;;;;;;;16.44;68.19;102818.19;5066335;28;20131;-55
2021/09/01 07:56:45;;;;;;;13.77;4.70;;;;;;;16.44;68.25;102810.78;5051908;28;20064;-57
2021/09/01 07:59:14;;;;;;;15.93;5.00;;;;;;;16.46;68.29;102818.78;5049488;28;20032;-56
2021/09/01 08:01:45;;;;;;;16.95;5.65;;;;;;;16.45;68.82;102817.94;5042985;28;20099;-56
2021/09/01 08:04:14;;;;;;;19.05;5.43;;;;;;;16.46;68.79;102824.28;5044990;28;20047;-56
2021/09/01 08:06:42;;;;;;;15.05;6.20;;;;;;;16.47;69.33;102826.75;5061587;28;20041;-56
2021/09/01 08:09:13;;;;;;;17.52;6.47;;;;;;;16.47;69.87;102821.25;5040109;28;20044;-57
2021/09/01 08:11:45;;;;;;;14.65;6.20;;;;;;;16.50;69.28;102829.00;5049856;28;20529;-59
2021/09/01 08:14:15;;;;;;;17.77;6.60;;;;;;;16.51;69.32;102830.66;5054367;28;20032;-59
2021/09/01 08:17:03;;;;;;;15.90;6.35;;;;;;;16.53;69.32;102836.75;5069339;28;20559;-57
2021/09/01 08:19:31;;;;;;;16.98;6.95;;;;;;;16.55;69.86;102834.56;5071293;28;20443;-61
2021/09/01 08:21:59;;;;;;;15.38;6.60;;;;;;;16.55;69.70;102829.06;5072378;28;20041;-58
2021/09/01 08:24:26;;;;;;;14.88;6.40;;;;;;;16.57;69.72;102842.53;5072305;28;20056;-59
2021/09/01 08:26:54;;;;;;;16.83;7.82;;;;;;;16.57;70.12;102840.66;5071948;28;20506;-60
2021/09/01 08:29:21;;;;;;;22.10;8.07;;;;;;;16.58;70.07;102847.78;5071989;28;20104;-59
2021/09/01 08:31:49;;;;;;;20.20;8.05;;;;;;;16.59;70.05;102846.69;5071579;28;20487;-59
2021/09/01 08:34:16;;;;;;;23.77;8.38;;;;;;;16.57;70.05;102843.41;5071910;28;20048;-59
2021/09/01 08:36:44;;;;;;;21.10;8.07;;;;;;;16.59;70.05;102845.88;5070799;28;20040;-60
2021/09/01 08:39:11;;;;;;;22.02;8.10;;;;;;;16.58;70.84;102853.31;5063734;28;20047;-61
2021/09/01 08:41:39;;;;;;;22.48;7.68;;;;;;;16.59;70.41;102854.94;5066003;28;20056;-59
2021/09/01 08:44:07;;;;;;;21.88;8.82;;;;;;;16.60;71.10;102853.06;5041062;28;20039;-59
2021/09/01 08:46:35;;;;;;;19.45;7.88;;;;;;;16.59;71.26;102845.88;5041220;28;20060;-60
2021/09/01 08:49:04;;;;;;;18.10;7.72;;;;;;;16.58;70.49;102845.03;5047703;28;20387;-59
2021/09/01 08:51:32;;;;;;;18.17;7.03;;;;;;;16.57;69.77;102851.66;5029060;28;20364;-57
2021/09/01 08:54:00;;;;;;;20.58;6.68;;;;;;;16.58;69.50;102849.72;5053342;28;20036;-60
2021/09/01 08:56:28;;;;;;;14.75;6.90;;;;;;;16.57;70.09;102856.31;5051880;28;20124;-59
2021/09/01 08:58:56;;;;;;;17.85;7.55;;;;;;;16.56;70.80;102852.72;5051747;28;20086;-59
2021/09/01 09:01:46;;;;;;;19.67;7.88;;;;;;;16.58;70.45;102846.97;5051761;28;20491;-59
2021/09/01 09:04:17;;;;;;;16.85;7.03;;;;;;;16.53;70.38;102847.75;5047078;28;20060;-59
2021/09/01 09:06:54;;;;;;;19.17;6.22;;;;;;;16.47;70.87;102843.25;5045136;28;20079;-59
2021/09/01 09:09:32;;;;;;;16.35;5.50;;;;;;;16.49;70.15;102845.78;5039384;28;20136;-58
2021/09/01 09:12:05;;;;;;;15.93;5.65;;;;;;;16.54;70.41;102846.66;5049347;28;20071;-60
2021/09/01 09:14:47;;;;;;;13.75;4.95;;;;;;;16.58;69.18;102841.47;5053400;28;20083;-59
2021/09/01 09:17:20;;;;;;;36.83;5.85;;;;;;;16.58;68.85;102844.22;5053294;28;20565;-59
2021/09/01 09:20:04;;;;;;;15.13;4.90;;;;;;;16.61;68.71;102841.75;5057348;28;20529;-59
2021/09/01 09:22:37;;;;;;;11.00;4.82;;;;;;;16.66;68.25;102843.75;5075777;28;20094;-58
2021/09/01 09:25:12;;;;;;;12.07;4.40;;;;;;;16.71;68.36;102842.97;5075616;28;20376;-57
2021/09/01 09:27:46;;;;;;;15.17;5.20;;;;;;;16.77;67.95;102841.94;5075433;28;20414;-59
2021/09/01 09:30:35;;;;;;;12.65;4.60;;;;;;;16.79;66.84;102834.28;5075222;28;20035;-58
2021/09/01 09:33:09;;;;;;;11.60;4.55;;;;;;;16.80;67.48;102838.69;5075240;28;20403;-55
2021/09/01 09:35:51;;;;;;;14.68;4.93;;;;;;;16.86;67.87;102834.03;5048674;28;20043;-60
2021/09/01 09:38:30;;;;;;;16.60;5.18;;;;;;;16.89;67.58;102833.56;5075118;28;20040;-58
2021/09/01 09:40:58;;;;;;;13.70;5.22;;;;;;;16.94;67.36;102830.84;5075242;28;20041;-60
2021/09/01 09:43:26;;;;;;;14.60;5.65;;;;;;;17.02;67.41;102831.16;5075210;28;20229;-53
2021/09/01 09:46:12;;;;;;;12.52;4.88;;;;;;;17.09;67.30;102838.41;5074966;28;20491;-60
2021/09/01 09:48:42;;;;;;;17.70;4.78;;;;;;;17.10;65.63;102831.78;5066229;28;20040;-60
2021/09/01 09:51:12;;;;;;;11.35;4.47;;;;;;;17.10;64.82;102845.56;5056457;28;20037;-59
2021/09/01 09:53:41;;;;;;;16.75;4.63;;;;;;;17.11;63.45;102834.28;5054890;28;20399;-58
2021/09/01 09:56:24;;;;;;;13.15;4.75;;;;;;;17.09;64.28;102839.22;5066144;28;20144;-59
2021/09/01 09:58:54;;;;;;;13.05;4.25;;;;;;;17.09;64.30;102838.41;5057247;28;20044;-59
2021/09/01 10:01:24;;;;;;;16.92;6.72;;;;;;;17.14;64.51;102835.69;5043460;28;20380;-58
2021/09/01 10:03:53;;;;;;;18.30;5.22;;;;;;;17.14;63.97;102831.00;5053211;28;20045;-59
2021/09/01 10:06:36;;;;;;;12.18;4.70;;;;;;;17.14;64.08;102831.00;5047010;28;20041;-59
2021/09/01 10:09:10;;;;;;;13.25;5.05;;;;;;;17.14;64.47;102832.94;5049039;28;20086;-58
2021/09/01 10:11:47;;;;;;;13.05;4.30;;;;;;;17.14;64.72;102836.50;5052511;28;20135;-59
2021/09/01 10:14:19;;;;;;;17.58;4.35;;;;;;;17.14;64.05;102831.00;5074426;28;20056;-57
2021/09/01 10:17:02;;;;;;;17.15;6.32;;;;;;;17.09;63.65;102827.38;5029450;28;20052;-59
2021/09/01 10:19:51;;;;;;;11.43;4.03;;;;;;;17.06;63.73;102827.91;5056190;28;20044;-58
2021/09/01 10:22:39;;;;;;;14.65;4.50;;;;;;;17.10;64.72;102826.28;5059372;28;20045;-59
2021/09/01 10:25:07;;;;;;;12.70;4.18;;;;;;;17.07;62.67;102830.38;5056639;28;20040;-52
2021/09/01 10:27:35;;;;;;;14.05;4.45;;;;;;;17.06;62.61;102839.75;5074450;28;20044;-56
2021/09/01 10:30:11;;;;;;;15.00;4.38;;;;;;;17.08;62.45;102831.22;5072523;28;20083;-58
2021/09/01 10:32:42;;;;;;;13.70;4.15;;;;;;;17.11;62.35;102820.50;5074458;28;20045;-59
2021/09/01 10:35:12;;;;;;;18.13;5.53;;;;;;;17.18;62.12;102825.81;5074131;28;20044;-59
2021/09/01 10:37:43;;;;;;;15.70;5.22;;;;;;;17.18;62.37;102812.03;5074455;28;20047;-59
2021/09/01 10:40:38;;;;;;;12.27;4.13;;;;;;;17.18;62.23;102815.59;5056287;28;20037;-59
2021/09/01 10:43:20;;;;;;;13.95;4.50;;;;;;;17.16;62.85;102822.47;5071671;28;20071;-59
2021/09/01 10:45:47;;;;;;;13.02;4.53;;;;;;;17.19;63.08;102819.19;5073704;28;20040;-58
2021/09/01 10:48:16;;;;;;;15.48;4.43;;;;;;;17.18;62.94;102814.78;5073959;28;20044;-58
2021/09/01 10:50:45;;;;;;;11.27;4.75;;;;;;;17.19;62.79;102816.44;5073925;28;20039;-59
2021/09/01 10:53:18;;;;;;;16.20;4.90;;;;;;;17.17;62.68;102813.97;5056110;28;20049;-59
2021/09/01 10:55:58;;;;;;;13.80;4.32;;;;;;;17.20;63.13;102813.41;5073613;28;20036;-58
2021/09/01 10:58:41;;;;;;;12.60;4.18;;;;;;;17.22;62.90;102804.88;5055634;28;20045;-56
2021/09/01 11:01:16;;;;;;;12.27;4.70;;;;;;;17.21;61.88;102798.53;5047691;28;20119;-53
2021/09/01 11:04:04;;;;;;;12.00;4.60;;;;;;;17.26;62.58;102800.50;5073845;28;20123;-58
2021/09/01 11:06:35;;;;;;;14.65;4.53;;;;;;;17.30;62.18;102800.81;5073570;28;20131;-58
2021/09/01 11:09:14;;;;;;;13.73;4.85;;;;;;;17.31;62.51;102802.47;5053571;28;20448;-58
2021/09/01 11:11:55;;;;;;;14.48;4.82;;;;;;;17.25;62.75;102799.69;5045746;28;20044;-55
2021/09/01 11:14:43;;;;;;;13.75;4.95;;;;;;;17.25;63.25;102796.09;5055543;28;20037;-60
2021/09/01 11:17:29;;;;;;;13.63;4.80;;;;;;;17.27;63.55;102801.31;5055918;28;20059;-57
2021/09/01 11:20:17;;;;;;;16.55;4.88;;;;;;;17.26;63.92;102803.25;5056077;28;20040;-58
2021/09/01 11:23:01;;;;;;;13.82;4.75;;;;;;;17.31;63.20;102807.97;5038280;28;20053;-60
2021/09/01 11:25:48;;;;;;;13.13;4.65;;;;;;;17.31;62.49;102800.53;5050892;28;20060;-60
2021/09/01 11:28:17;;;;;;;13.27;4.60;;;;;;;17.34;62.75;102796.41;5052918;28;20048;-59
2021/09/01 11:30:44;;;;;;;14.63;5.40;;;;;;;17.39;62.65;102801.97;5035472;28;20136;-59
2021/09/01 11:33:16;;;;;;;17.52;4.75;;;;;;;17.41;62.40;102805.28;5053199;28;20134;-58
2021/09/01 11:35:44;;;;;;;16.52;4.75;;;;;;;17.42;62.55;102807.78;5035323;28;20044;-59
2021/09/01 11:38:11;;;;;;;10.95;3.97;;;;;;;17.45;62.35;102809.19;4349191;28;10000611;-58
2021/09/01 11:40:41;;;;;;;16.63;4.90;;;;;;;17.43;61.40;102798.41;5022912;28;20041;-59